Time;durP1;ratioP1;P1;durP2;ratioP2;P2;SDS_P1;SDS_P2;PMS_P1;PMS_P2;Temp;Humidity;BMP_temperature;BMP_pressure;BME280_temperature;BME280_humidity;BME280_pressure;Samples;Min_cycle;Max_cycle;Signal;HPM_P1;HPM_P2
2022/01/30 00:02:03;;;;;;;0.63;0.00;;;6.60;99.90;;;;;;5117462;28;20039;-91
2022/01/30 00:04:29;;;;;;;0.00;0.00;;;6.60;99.90;;;;;;5099883;28;20087;-92
2022/01/30 00:06:54;;;;;;;0.38;0.28;;;6.40;99.90;;;;;;5116480;28;20426;-91
2022/01/30 00:09:22;;;;;;;2.00;1.15;;;6.50;99.90;;;;;;5099616;28;20044;-91
2022/01/30 00:11:53;;;;;;;0.10;0.10;;;6.60;99.90;;;;;;5099973;28;20059;-91
2022/01/30 00:14:21;;;;;;;0.00;0.00;;;6.50;99.90;;;;;;5116639;28;20142;-91
2022/01/30 00:16:55;;;;;;;0.00;0.00;;;6.40;99.90;;;;;;5116838;28;20123;-91
2022/01/30 00:19:35;;;;;;;22.08;1.10;;;6.50;99.90;;;;;;5099704;28;20470;-92
2022/01/30 00:22:15;;;;;;;0.70;0.70;;;6.40;99.90;;;;;;5099870;28;20051;-91
2022/01/30 00:24:53;;;;;;;0.20;0.20;;;6.50;99.90;;;;;;5099017;28;20471;-90
2022/01/30 00:27:20;;;;;;;0.52;0.52;;;6.40;99.90;;;;;;5099680;28;20102;-90
2022/01/30 00:29:46;;;;;;;1.05;0.60;;;6.50;99.90;;;;;;5115966;28;20044;-91
2022/01/30 00:32:12;;;;;;;0.22;0.22;;;6.50;99.90;;;;;;5100220;28;20425;-91
2022/01/30 00:34:38;;;;;;;0.10;0.10;;;6.50;99.90;;;;;;5098920;28;20047;-92
2022/01/30 00:37:04;;;;;;;0.00;0.00;;;7.10;99.90;;;;;;5099388;28;20039;-91
2022/01/30 00:39:30;;;;;;;2.05;0.80;;;6.40;99.90;;;;;;5099178;28;20168;-91
2022/01/30 00:41:56;;;;;;;2.08;0.63;;;6.80;99.90;;;;;;5099347;28;20137;-91
2022/01/30 00:44:21;;;;;;;0.13;0.13;;;7.00;99.90;;;;;;5098522;28;20076;-91
2022/01/30 00:46:48;;;;;;;0.00;0.00;;;6.50;99.90;;;;;;5115685;28;20043;-92
2022/01/30 00:49:13;;;;;;;0.00;0.00;;;7.10;99.90;;;;;;5099060;28;20097;-91
2022/01/30 00:51:39;;;;;;;5.22;1.00;;;6.30;99.90;;;;;;5099010;28;20051;-90
2022/01/30 00:54:05;;;;;;;0.00;0.00;;;6.30;99.90;;;;;;5116112;28;20073;-91
2022/01/30 00:56:31;;;;;;;0.00;0.00;;;6.10;99.90;;;;;;5098810;28;20051;-91
2022/01/30 00:58:57;;;;;;;0.70;0.10;;;6.20;99.90;;;;;;5097561;28;20549;-91
2022/01/30 01:01:23;;;;;;;0.00;0.00;;;6.60;99.90;;;;;;5115822;28;20048;-91
2022/01/30 01:03:49;;;;;;;0.00;0.00;;;6.20;99.90;;;;;;5098377;28;20083;-91
2022/01/30 01:06:14;;;;;;;0.00;0.00;;;6.00;99.90;;;;;;5116241;28;20040;-91
2022/01/30 01:08:52;;;;;;;5.68;0.93;;;6.00;99.90;;;;;;5098314;28;20048;-91
2022/01/30 01:24:38;;;;;;;0.73;0.40;;;6.20;99.90;;;;;;5056957;28;20049;-91
2022/01/30 01:27:04;;;;;;;0.10;0.10;;;6.60;99.90;;;;;;5056550;28;20063;-90
2022/01/30 01:29:30;;;;;;;0.00;0.00;;;6.10;99.90;;;;;;5056812;28;20109;-92
2022/01/30 01:31:56;;;;;;;0.85;0.40;;;6.20;99.90;;;;;;5057178;28;20496;-91
2022/01/30 01:34:37;;;;;;;0.00;0.00;;;6.10;99.90;;;;;;5040564;28;20425;-90
2022/01/30 01:37:03;;;;;;;0.00;0.00;;;6.10;99.90;;;;;;5056569;28;20506;-91
2022/01/30 01:39:29;;;;;;;0.00;0.00;;;6.00;99.90;;;;;;5039744;28;20109;-91
2022/01/30 01:41:56;;;;;;;0.30;0.30;;;6.30;99.90;;;;;;5057001;28;20126;-91
2022/01/30 01:44:33;;;;;;;0.00;0.00;;;5.90;99.90;;;;;;5039893;28;20500;-92
2022/01/30 01:47:00;;;;;;;0.00;0.00;;;6.00;99.90;;;;;;5039858;28;20170;-91
2022/01/30 01:49:30;;;;;;;2.08;0.38;;;6.00;99.90;;;;;;5056637;28;20049;-91
2022/01/30 01:54:41;;;;;;;0.00;0.00;;;6.30;99.90;;;;;;5056464;28;20079;-91
2022/01/30 01:57:07;;;;;;;0.00;0.00;;;6.00;99.90;;;;;;5056360;28;20086;-91
2022/01/30 01:59:32;;;;;;;0.22;0.20;;;5.90;99.90;;;;;;5039848;28;20141;-91
2022/01/30 02:02:01;;;;;;;0.47;0.47;;;5.90;99.90;;;;;;5075679;28;20058;-90
2022/01/30 02:04:27;;;;;;;2.05;0.08;;;6.10;99.90;;;;;;5114117;28;20093;-91
2022/01/30 02:07:04;;;;;;;10.98;0.28;;;6.00;99.90;;;;;;5097195;28;20482;-91
2022/01/30 02:09:32;;;;;;;13.90;0.90;;;5.70;99.90;;;;;;5097301;28;20058;-91
2022/01/30 02:11:59;;;;;;;0.00;0.00;;;5.70;99.90;;;;;;5097427;28;20043;-91
2022/01/30 02:14:36;;;;;;;0.00;0.00;;;6.10;99.90;;;;;;5097248;28;20054;-90
2022/01/30 02:25:32;;;;;;;0.00;0.00;;;5.60;99.90;;;;;;5114310;28;20086;-91
2022/01/30 02:27:59;;;;;;;0.00;0.00;;;5.60;99.90;;;;;;5096808;28;20411;-91
2022/01/30 02:30:32;;;;;;;0.00;0.00;;;5.60;99.90;;;;;;5097079;28;20403;-91
2022/01/30 02:32:58;;;;;;;0.00;0.00;;;5.90;99.90;;;;;;5096951;28;20044;-91
2022/01/30 02:35:23;;;;;;;0.73;0.15;;;6.00;99.90;;;;;;5113557;28;20514;-91
2022/01/30 02:37:52;;;;;;;0.38;0.10;;;5.60;99.90;;;;;;5097069;28;20083;-92
2022/01/30 02:40:18;;;;;;;0.00;0.00;;;5.70;99.90;;;;;;5096892;28;20043;-91
2022/01/30 02:42:49;;;;;;;0.20;0.20;;;5.60;99.90;;;;;;5113808;28;20044;-91
2022/01/30 02:45:16;;;;;;;0.90;0.75;;;5.60;99.90;;;;;;5113905;28;20614;-91
2022/01/30 02:53:08;;;;;;;0.00;0.00;;;6.10;99.90;;;;;;5113826;28;20046;-91
2022/01/30 02:55:34;;;;;;;5.72;0.82;;;5.80;99.90;;;;;;5096903;28;20482;-91
2022/01/30 02:58:00;;;;;;;0.73;0.47;;;6.00;99.90;;;;;;5114303;28;20051;-91
2022/01/30 03:00:26;;;;;;;0.00;0.00;;;5.90;99.90;;;;;;5096609;28;20046;-90
2022/01/30 03:02:52;;;;;;;0.00;0.00;;;5.80;99.90;;;;;;5113543;28;20053;-91
2022/01/30 03:05:17;;;;;;;0.10;0.00;;;7.40;99.90;;;;;;5113150;28;20067;-91
2022/01/30 03:07:43;;;;;;;0.00;0.00;;;6.50;99.90;;;;;;5096448;28;20140;-92
2022/01/30 03:10:11;;;;;;;0.00;0.00;;;5.90;99.90;;;;;;5096939;28;20051;-91
2022/01/30 03:12:36;;;;;;;0.00;0.00;;;6.00;99.90;;;;;;5113687;28;20368;-91
2022/01/30 03:15:03;;;;;;;0.47;0.38;;;6.20;99.90;;;;;;5096199;28;20093;-91
2022/01/30 03:17:29;;;;;;;0.00;0.00;;;6.00;99.90;;;;;;5096393;28;20111;-91
2022/01/30 03:19:55;;;;;;;2.38;1.40;;;6.10;99.90;;;;;;5097416;28;20130;-91
2022/01/30 03:22:20;;;;;;;0.00;0.00;;;6.40;99.90;;;;;;5099532;28;20577;-91
2022/01/30 03:24:46;;;;;;;0.00;0.00;;;6.10;99.90;;;;;;5117545;28;20134;-91
2022/01/30 03:27:18;;;;;;;0.00;0.00;;;6.10;99.90;;;;;;5100098;28;20056;-90
2022/01/30 03:29:51;;;;;;;0.90;0.80;;;6.10;99.90;;;;;;5101484;28;20459;-91
2022/01/30 03:32:17;;;;;;;0.10;0.00;;;6.10;99.90;;;;;;5100774;28;20043;-92
2022/01/30 03:34:43;;;;;;;0.00;0.00;;;6.50;99.90;;;;;;5117598;28;20441;-91
2022/01/30 03:37:08;;;;;;;0.22;0.22;;;6.10;99.90;;;;;;5100616;28;20043;-91
2022/01/30 03:39:34;;;;;;;2.55;1.13;;;6.10;99.90;;;;;;5116877;28;20475;-90
2022/01/30 03:42:00;;;;;;;0.17;0.17;;;5.80;99.90;;;;;;5117177;28;20090;-91
2022/01/30 03:44:25;;;;;;;0.43;0.10;;;6.00;99.90;;;;;;5100270;28;20471;-91
2022/01/30 03:46:51;;;;;;;9.48;1.00;;;6.00;99.90;;;;;;5100166;28;20050;-90
2022/01/30 03:49:17;;;;;;;1.33;0.88;;;6.20;99.90;;;;;;5117859;28;20039;-90
2022/01/30 03:51:43;;;;;;;0.00;0.00;;;6.10;99.90;;;;;;5100241;28;20056;-91
2022/01/30 03:54:08;;;;;;;0.40;0.20;;;5.90;99.90;;;;;;5099766;28;20043;-90
2022/01/30 03:56:37;;;;;;;0.00;0.00;;;5.80;99.90;;;;;;5099719;28;20101;-90
2022/01/30 03:59:02;;;;;;;0.00;0.00;;;6.50;99.90;;;;;;5099312;28;20039;-90
2022/01/30 04:01:28;;;;;;;0.15;0.00;;;5.70;99.90;;;;;;5116546;28;20039;-91
2022/01/30 04:03:54;;;;;;;0.00;0.00;;;6.40;99.90;;;;;;5099232;28;20122;-90
2022/01/30 04:06:19;;;;;;;0.32;0.10;;;5.60;99.90;;;;;;5116526;28;20043;-90
2022/01/30 04:08:45;;;;;;;0.00;0.00;;;5.60;99.90;;;;;;5099578;28;20039;-91
2022/01/30 04:11:11;;;;;;;0.00;0.00;;;5.60;99.90;;;;;;5115731;28;20075;-90
2022/01/30 04:13:37;;;;;;;0.10;0.10;;;5.60;99.90;;;;;;5099144;28;20039;-90
2022/01/30 04:16:06;;;;;;;0.00;0.00;;;5.60;99.90;;;;;;5099170;28;20040;-91
2022/01/30 04:18:31;;;;;;;2.25;0.28;;;5.60;99.90;;;;;;5099323;28;20086;-90
2022/01/30 04:21:00;;;;;;;0.00;0.00;;;5.60;99.90;;;;;;5099404;28;20082;-91
2022/01/30 04:23:25;;;;;;;1.00;0.50;;;5.70;99.90;;;;;;5099082;28;20391;-91
2022/01/30 04:25:54;;;;;;;0.00;0.00;;;5.60;99.90;;;;;;5098741;28;20050;-90
2022/01/30 04:28:20;;;;;;;1.25;0.10;;;5.60;99.90;;;;;;5098841;28;20487;-90
2022/01/30 04:30:46;;;;;;;0.00;0.00;;;5.70;99.90;;;;;;5099984;28;20051;-90
2022/01/30 04:33:33;;;;;;;3.95;0.05;;;5.70;99.90;;;;;;5098891;28;20063;-90
2022/01/30 04:36:05;;;;;;;0.25;0.15;;;5.70;99.90;;;;;;5001118;28;20072;-90
2022/01/30 04:38:42;;;;;;;1.77;0.28;;;5.70;99.90;;;;;;5001561;28;20061;-90
2022/01/30 05:00:03;;;;;;;2.63;0.55;;;5.80;99.90;;;;;;5017427;28;20281;-90
2022/01/30 05:07:51;;;;;;;1.27;0.50;;;5.80;99.90;;;;;;5018195;28;20490;-91
2022/01/30 05:10:18;;;;;;;0.35;0.35;;;5.80;99.90;;;;;;5000429;28;20081;-91
2022/01/30 05:12:51;;;;;;;0.05;0.05;;;5.70;99.90;;;;;;5034327;28;20059;-90
2022/01/30 05:15:19;;;;;;;0.00;0.00;;;5.60;99.90;;;;;;5099337;28;20043;-90
2022/01/30 05:17:45;;;;;;;12.00;1.27;;;5.60;99.90;;;;;;5098290;28;20043;-91
2022/01/30 05:20:12;;;;;;;0.25;0.25;;;5.50;99.90;;;;;;5098192;28;20047;-91
2022/01/30 05:22:38;;;;;;;0.20;0.20;;;5.40;99.90;;;;;;5098454;28;20391;-91
2022/01/30 05:25:05;;;;;;;0.35;0.22;;;5.40;99.90;;;;;;5098271;28;20050;-91
2022/01/30 05:27:30;;;;;;;0.20;0.20;;;5.40;99.90;;;;;;5097893;28;20060;-91
2022/01/30 05:29:57;;;;;;;1.23;0.47;;;5.40;99.90;;;;;;5097789;28;20039;-92
2022/01/30 05:32:23;;;;;;;1.10;0.75;;;5.40;99.90;;;;;;5098282;28;20043;-91
2022/01/30 05:34:49;;;;;;;1.45;0.80;;;5.40;99.90;;;;;;5098478;28;20035;-91
2022/01/30 05:37:18;;;;;;;0.52;0.52;;;5.40;99.90;;;;;;5114985;28;20540;-91
2022/01/30 05:39:44;;;;;;;0.00;0.00;;;5.40;99.90;;;;;;5097854;28;20043;-91
2022/01/30 05:42:11;;;;;;;0.57;0.55;;;5.40;99.90;;;;;;5097924;28;20058;-91
2022/01/30 05:44:48;;;;;;;0.17;0.10;;;5.40;99.90;;;;;;5096375;28;20051;-90
2022/01/30 05:47:22;;;;;;;0.25;0.05;;;5.40;99.90;;;;;;5098160;28;20036;-91
2022/01/30 05:49:48;;;;;;;0.65;0.65;;;5.40;99.90;;;;;;5098402;28;20043;-90
2022/01/30 05:52:14;;;;;;;0.03;0.03;;;5.50;99.90;;;;;;5097627;28;20135;-90
2022/01/30 05:54:40;;;;;;;0.10;0.10;;;6.50;99.90;;;;;;5114508;28;20078;-91
2022/01/30 05:57:06;;;;;;;0.00;0.00;;;5.50;99.90;;;;;;5097740;28;20122;-90
2022/01/30 05:59:32;;;;;;;0.90;0.90;;;5.40;99.90;;;;;;5097761;28;20376;-91
2022/01/30 06:01:58;;;;;;;4.95;1.02;;;5.50;99.90;;;;;;5097143;28;20059;-91
2022/01/30 06:04:23;;;;;;;0.00;0.00;;;5.40;99.90;;;;;;5114848;28;20055;-91
2022/01/30 06:06:51;;;;;;;0.10;0.10;;;5.50;99.90;;;;;;5114019;28;20104;-91
2022/01/30 06:11:45;;;;;;;0.10;0.10;;;6.10;99.90;;;;;;5114613;28;20043;-91
2022/01/30 06:14:11;;;;;;;0.32;0.32;;;5.40;99.90;;;;;;5097224;28;20047;-91
2022/01/30 06:16:36;;;;;;;2.75;0.28;;;5.30;99.90;;;;;;5097540;28;20058;-90
2022/01/30 06:19:02;;;;;;;0.80;0.35;;;5.30;99.90;;;;;;5114305;28;20045;-90
2022/01/30 06:21:28;;;;;;;2.63;0.52;;;5.30;99.90;;;;;;5097445;28;20395;-91
2022/01/30 06:23:55;;;;;;;0.52;0.52;;;5.30;99.90;;;;;;5097159;28;20097;-90
2022/01/30 06:26:21;;;;;;;0.00;0.00;;;5.20;99.90;;;;;;5113908;28;20048;-91
2022/01/30 06:28:46;;;;;;;0.20;0.20;;;5.20;99.90;;;;;;5096735;28;20078;-91
2022/01/30 06:31:12;;;;;;;0.10;0.10;;;5.10;99.90;;;;;;5113406;28;20048;-90
2022/01/30 06:33:38;;;;;;;1.02;0.95;;;5.10;99.90;;;;;;5097006;28;20100;-91
2022/01/30 06:36:04;;;;;;;0.15;0.15;;;5.00;99.90;;;;;;5097502;28;20036;-90
2022/01/30 06:38:30;;;;;;;0.00;0.00;;;5.00;99.90;;;;;;5096554;28;20044;-90
2022/01/30 06:40:55;;;;;;;1.67;1.58;;;5.00;99.90;;;;;;5114144;28;20039;-91
2022/01/30 06:43:22;;;;;;;3.00;1.08;;;5.00;99.90;;;;;;5096999;28;20050;-90
2022/01/30 06:45:48;;;;;;;0.08;0.08;;;5.50;99.90;;;;;;5097186;28;20158;-90
2022/01/30 06:48:17;;;;;;;0.45;0.40;;;5.00;99.90;;;;;;5113567;28;20044;-91
2022/01/30 06:50:43;;;;;;;0.55;0.52;;;4.80;99.90;;;;;;5097071;28;20039;-90
2022/01/30 06:53:09;;;;;;;2.13;0.30;;;5.00;99.90;;;;;;5096001;28;20051;-91
2022/01/30 06:55:35;;;;;;;1.02;0.75;;;5.10;99.90;;;;;;5112191;28;20104;-90
2022/01/30 06:58:00;;;;;;;0.10;0.10;;;5.30;99.90;;;;;;5096210;28;20093;-90
2022/01/30 07:00:26;;;;;;;0.00;0.00;;;5.50;99.90;;;;;;5096850;28;20047;-91
2022/01/30 07:02:52;;;;;;;0.10;0.10;;;5.20;99.90;;;;;;5096455;28;20048;-90
2022/01/30 07:05:18;;;;;;;2.30;0.60;;;5.30;99.90;;;;;;5096226;28;20075;-92
2022/01/30 07:07:43;;;;;;;0.75;0.75;;;5.70;99.90;;;;;;5096533;28;20040;-91
2022/01/30 07:10:12;;;;;;;0.00;0.00;;;5.40;99.90;;;;;;5096580;28;20046;-90
2022/01/30 07:12:37;;;;;;;6.43;0.25;;;5.40;99.90;;;;;;5113116;28;20040;-91
2022/01/30 07:15:06;;;;;;;1.65;1.55;;;5.30;99.90;;;;;;5096603;28;20141;-92
2022/01/30 07:17:32;;;;;;;0.10;0.10;;;5.40;99.90;;;;;;5113666;28;20105;-90
2022/01/30 07:19:58;;;;;;;2.15;0.77;;;5.60;99.90;;;;;;5113330;28;20043;-90
2022/01/30 07:22:23;;;;;;;0.40;0.40;;;6.00;99.90;;;;;;5096168;28;20399;-91
2022/01/30 07:24:49;;;;;;;3.70;0.20;;;5.70;99.90;;;;;;5097088;28;20043;-91
2022/01/30 07:27:15;;;;;;;0.00;0.00;;;5.40;99.90;;;;;;5112875;28;20048;-91
2022/01/30 07:29:41;;;;;;;0.00;0.00;;;5.50;99.90;;;;;;5097018;28;20044;-91
2022/01/30 07:32:07;;;;;;;0.00;0.00;;;5.50;99.90;;;;;;5096578;28;20181;-92
2022/01/30 07:34:33;;;;;;;8.43;0.98;;;5.40;99.90;;;;;;5113692;28;20074;-91
2022/01/30 07:36:58;;;;;;;2.38;0.98;;;5.40;99.90;;;;;;5113444;28;20048;-92
2022/01/30 07:39:30;;;;;;;0.10;0.10;;;5.30;99.90;;;;;;5113209;28;20035;-91
2022/01/30 07:41:58;;;;;;;0.00;0.00;;;5.50;99.90;;;;;;5097212;28;20490;-90
2022/01/30 07:44:24;;;;;;;0.20;0.20;;;7.00;99.90;;;;;;5096391;28;20108;-90
2022/01/30 07:46:50;;;;;;;0.00;0.00;;;5.50;99.90;;;;;;5096828;28;20036;-90
2022/01/30 07:49:16;;;;;;;0.10;0.10;;;5.70;99.90;;;;;;5113391;28;20043;-91
2022/01/30 07:51:42;;;;;;;0.00;0.00;;;5.60;99.90;;;;;;5096335;28;20043;-91
2022/01/30 07:54:08;;;;;;;0.00;0.00;;;5.70;99.90;;;;;;5095544;28;20044;-90
2022/01/30 07:56:34;;;;;;;1.83;0.38;;;5.70;99.90;;;;;;5095126;28;20039;-90
2022/01/30 07:59:00;;;;;;;0.63;0.10;;;5.80;99.90;;;;;;5095708;28;20088;-91
2022/01/30 08:01:25;;;;;;;10.23;1.45;;;6.30;99.90;;;;;;5113095;28;20040;-91
2022/01/30 08:03:51;;;;;;;0.00;0.00;;;5.80;99.90;;;;;;5111834;28;20520;-90
2022/01/30 08:06:17;;;;;;;2.08;0.88;;;5.80;99.90;;;;;;5111956;28;20040;-90
2022/01/30 08:08:43;;;;;;;0.25;0.22;;;5.90;99.90;;;;;;5099795;28;20479;-92
2022/01/30 08:11:09;;;;;;;0.45;0.20;;;6.10;99.90;;;;;;5099712;28;20050;-91
2022/01/30 08:13:35;;;;;;;0.15;0.15;;;6.00;99.90;;;;;;5116918;28;20044;-91
2022/01/30 08:16:01;;;;;;;0.30;0.30;;;5.90;99.90;;;;;;5099457;28;20047;-92
2022/01/30 08:18:27;;;;;;;0.00;0.00;;;6.00;99.90;;;;;;5099504;28;20134;-90
2022/01/30 08:21:07;;;;;;;0.05;0.05;;;6.00;99.90;;;;;;5100665;28;20043;-92
2022/01/30 08:23:36;;;;;;;4.10;1.13;;;6.10;99.90;;;;;;5099096;28;20044;-92
2022/01/30 08:26:03;;;;;;;0.45;0.45;;;6.00;99.90;;;;;;5098254;28;20044;-92
2022/01/30 08:28:29;;;;;;;0.28;0.20;;;6.10;99.90;;;;;;5097912;28;20047;-91
2022/01/30 08:31:03;;;;;;;2.28;0.10;;;6.20;99.90;;;;;;5115046;28;20514;-92
2022/01/30 08:33:31;;;;;;;0.13;0.13;;;5.70;99.90;;;;;;5107440;28;20453;-91
2022/01/30 08:35:57;;;;;;;2.35;0.50;;;6.10;99.90;;;;;;5098099;28;20043;-91
2022/01/30 08:38:25;;;;;;;0.47;0.30;;;6.20;99.90;;;;;;5097872;28;20043;-91
2022/01/30 08:40:57;;;;;;;0.98;0.45;;;6.20;99.90;;;;;;5112548;28;20051;-92
2022/01/30 08:43:37;;;;;;;1.17;0.20;;;6.30;99.90;;;;;;5098053;28;20051;-92
2022/01/30 08:46:17;;;;;;;1.02;0.57;;;6.20;99.90;;;;;;5110532;28;20104;-91
2022/01/30 08:48:56;;;;;;;3.88;0.80;;;6.10;99.90;;;;;;5098080;28;20040;-90
2022/01/30 08:51:27;;;;;;;0.82;0.82;;;6.10;99.90;;;;;;5073160;28;20075;-90
2022/01/30 08:53:53;;;;;;;0.80;0.45;;;6.60;99.90;;;;;;5056259;28;20056;-91
2022/01/30 08:56:21;;;;;;;2.10;0.20;;;7.20;99.90;;;;;;5049981;28;20056;-92
2022/01/30 08:58:48;;;;;;;0.63;0.28;;;7.70;99.90;;;;;;5044647;28;20051;-90
2022/01/30 09:01:14;;;;;;;0.00;0.00;;;8.20;96.40;;;;;;5052350;28;20098;-91
2022/01/30 09:03:40;;;;;;;0.00;0.00;;;8.50;95.50;;;;;;5057599;28;20041;-93
2022/01/30 09:06:06;;;;;;;4.90;1.85;;;8.60;94.90;;;;;;5057536;28;20044;-92
2022/01/30 09:08:32;;;;;;;0.05;0.05;;;8.30;90.60;;;;;;5057766;28;20051;-92
2022/01/30 09:10:58;;;;;;;0.43;0.15;;;8.60;93.00;;;;;;5057911;28;20420;-92
2022/01/30 09:13:24;;;;;;;0.32;0.32;;;8.00;91.30;;;;;;5056814;28;20051;-93
2022/01/30 09:15:56;;;;;;;3.53;0.90;;;7.60;91.50;;;;;;5057476;28;20044;-91
2022/01/30 09:18:24;;;;;;;0.08;0.08;;;7.70;92.10;;;;;;5057268;28;20135;-93
2022/01/30 09:20:50;;;;;;;2.60;0.10;;;8.20;92.00;;;;;;5058593;28;20056;-92
2022/01/30 09:23:16;;;;;;;0.00;0.00;;;7.80;90.40;;;;;;5090168;28;20403;-91
2022/01/30 09:25:42;;;;;;;0.88;0.40;;;8.10;90.10;;;;;;5095203;28;20047;-92
2022/01/30 09:28:07;;;;;;;0.10;0.10;;;8.50;88.20;;;;;;5077677;28;20123;-92
2022/01/30 09:30:34;;;;;;;0.10;0.10;;;9.00;85.10;;;;;;5078455;28;20051;-92
2022/01/30 09:33:00;;;;;;;0.30;0.30;;;9.70;80.40;;;;;;5078156;28;20036;-93
2022/01/30 09:35:25;;;;;;;0.00;0.00;;;10.00;76.30;;;;;;5095188;28;20074;-93
2022/01/30 09:37:51;;;;;;;1.25;0.73;;;10.60;75.30;;;;;;5097633;28;20647;-93
2022/01/30 09:40:18;;;;;;;4.30;0.57;;;10.80;73.70;;;;;;5098170;28;20040;-94
2022/01/30 09:42:45;;;;;;;1.00;0.60;;;10.50;72.40;;;;;;5097791;28;20043;-94
2022/01/30 09:45:16;;;;;;;4.75;1.35;;;10.00;72.50;;;;;;5098092;28;20487;-93
2022/01/30 09:47:42;;;;;;;0.03;0.03;;;9.60;73.40;;;;;;5098242;28;20043;-94
2022/01/30 09:50:09;;;;;;;0.03;0.03;;;9.70;76.10;;;;;;5098423;28;20035;-93
2022/01/30 09:52:36;;;;;;;0.25;0.25;;;10.00;74.60;;;;;;5098661;28;20135;-94
2022/01/30 09:55:08;;;;;;;0.20;0.20;;;10.40;71.90;;;;;;5115064;28;20048;-94
2022/01/30 09:57:34;;;;;;;1.40;0.98;;;10.60;69.80;;;;;;5097807;28;20040;-93
2022/01/30 10:00:00;;;;;;;0.35;0.22;;;10.90;70.40;;;;;;5097507;28;20040;-92
2022/01/30 10:02:26;;;;;;;0.55;0.43;;;11.30;69.80;;;;;;5097531;28;20039;-92
2022/01/30 10:04:53;;;;;;;2.10;1.27;;;11.80;67.90;;;;;;5114125;28;20043;-92
2022/01/30 10:07:21;;;;;;;2.88;0.65;;;11.60;65.00;;;;;;5114343;28;20043;-92
2022/01/30 10:09:49;;;;;;;0.98;0.25;;;11.50;64.90;;;;;;5114274;28;20059;-92
2022/01/30 10:12:23;;;;;;;0.10;0.10;;;11.60;64.60;;;;;;5097319;28;20412;-92
2022/01/30 10:15:05;;;;;;;1.55;1.13;;;11.90;66.20;;;;;;5111772;28;20550;-92
2022/01/30 10:17:40;;;;;;;1.00;1.00;;;12.30;65.00;;;;;;5095098;28;20043;-92
2022/01/30 10:20:11;;;;;;;1.33;0.63;;;12.30;63.90;;;;;;5114197;28;20405;-92
2022/01/30 10:23:02;;;;;;;0.63;0.15;;;12.30;63.00;;;;;;5100344;28;20077;-90
2022/01/30 10:25:36;;;;;;;0.55;0.45;;;12.50;63.50;;;;;;5094971;28;20046;-92
2022/01/30 10:28:11;;;;;;;0.35;0.35;;;12.10;63.40;;;;;;5098300;28;20101;-92
2022/01/30 10:30:45;;;;;;;1.90;0.32;;;11.40;64.90;;;;;;5093706;28;20445;-95
2022/01/30 10:33:13;;;;;;;5.03;0.82;;;10.70;65.40;;;;;;5094217;28;20036;-94
2022/01/30 10:35:58;;;;;;;0.25;0.25;;;10.90;67.00;;;;;;5094155;28;20052;-94
2022/01/30 10:38:27;;;;;;;0.50;0.22;;;11.50;66.10;;;;;;5077375;28;20044;-94
2022/01/30 10:40:54;;;;;;;2.40;0.88;;;11.70;65.00;;;;;;5077063;28;20140;-93
2022/01/30 10:43:20;;;;;;;0.40;0.35;;;12.00;64.80;;;;;;5077237;28;20043;-93
2022/01/30 10:45:49;;;;;;;0.10;0.10;;;12.30;64.90;;;;;;5093748;28;20040;-93
2022/01/30 10:48:17;;;;;;;1.08;0.70;;;12.70;62.70;;;;;;5077476;28;20048;-94
2022/01/30 10:50:47;;;;;;;0.75;0.65;;;12.90;62.30;;;;;;5093885;28;20373;-93
2022/01/30 10:53:25;;;;;;;2.85;0.08;;;13.00;61.90;;;;;;5076912;28;20040;-93
2022/01/30 10:55:52;;;;;;;0.55;0.55;;;13.10;61.20;;;;;;5078082;28;20098;-93
2022/01/30 10:58:21;;;;;;;2.25;0.80;;;13.30;61.10;;;;;;5093739;28;20131;-92
2022/01/30 11:00:58;;;;;;;1.35;0.80;;;13.10;60.10;;;;;;5076718;28;20049;-93
2022/01/30 11:03:55;;;;;;;1.38;0.93;;;13.00;60.50;;;;;;5076817;28;20341;-93
2022/01/30 11:06:21;;;;;;;0.20;0.20;;;12.70;60.60;;;;;;4999373;28;20057;-93
2022/01/30 11:08:50;;;;;;;26.05;3.53;;;13.00;62.10;;;;;;4999357;28;20046;-93
2022/01/30 11:14:03;;;;;;;0.00;0.00;;;13.10;62.40;;;;;;5032452;28;20058;-94
2022/01/30 11:19:16;;;;;;;0.00;0.00;;;13.00;61.20;;;;;;5032479;28;20088;-93
2022/01/30 11:21:43;;;;;;;0.00;0.00;;;13.50;63.60;;;;;;4999468;28;20132;-93
2022/01/30 11:24:10;;;;;;;0.40;0.40;;;13.20;63.20;;;;;;5015740;28;20053;-92
2022/01/30 11:26:38;;;;;;;0.00;0.00;;;13.40;62.00;;;;;;4999376;28;20041;-92
2022/01/30 11:29:08;;;;;;;6.97;0.82;;;13.40;61.50;;;;;;5015968;28;20117;-94
2022/01/30 11:31:34;;;;;;;0.28;0.20;;;13.10;61.40;;;;;;5015925;28;20049;-93
2022/01/30 11:34:01;;;;;;;0.00;0.00;;;12.70;61.90;;;;;;5016027;28;20115;-93
2022/01/30 11:36:27;;;;;;;0.60;0.60;;;12.20;61.80;;;;;;4999678;28;20057;-94
2022/01/30 11:38:54;;;;;;;0.00;0.00;;;11.90;63.70;;;;;;4999025;28;20046;-91
2022/01/30 11:41:21;;;;;;;0.00;0.00;;;10.90;64.90;;;;;;5015610;28;20087;-92
2022/01/30 11:44:08;;;;;;;0.25;0.25;;;10.70;66.40;;;;;;5076056;28;20063;-93
2022/01/30 11:46:34;;;;;;;0.77;0.45;;;10.90;67.20;;;;;;5097048;28;20113;-93
2022/01/30 11:49:13;;;;;;;0.25;0.00;;;11.20;65.10;;;;;;5080422;28;20048;-93
2022/01/30 11:51:52;;;;;;;4.03;1.98;;;10.90;64.60;;;;;;5080354;28;20091;-91
2022/01/30 11:54:38;;;;;;;1.90;1.42;;;10.70;65.30;;;;;;5096790;28;20044;-92
2022/01/30 11:57:24;;;;;;;0.08;0.08;;;11.20;62.90;;;;;;5080553;28;20502;-93
2022/01/30 11:59:52;;;;;;;0.70;0.55;;;11.60;61.30;;;;;;5080436;28;20048;-93
2022/01/30 12:02:38;;;;;;;0.38;0.20;;;12.10;59.30;;;;;;5079808;28;20564;-93
2022/01/30 12:05:11;;;;;;;0.43;0.43;;;12.40;59.50;;;;;;5097465;28;20056;-94
2022/01/30 12:07:42;;;;;;;0.00;0.00;;;12.70;59.60;;;;;;5100189;28;20505;-93
2022/01/30 12:10:20;;;;;;;0.45;0.32;;;13.10;59.30;;;;;;5099842;28;20075;-93
2022/01/30 12:12:59;;;;;;;1.17;0.38;;;13.30;57.80;;;;;;5100263;28;20131;-93
2022/01/30 12:15:43;;;;;;;0.00;0.00;;;13.30;56.50;;;;;;5100681;28;20068;-92
2022/01/30 12:18:36;;;;;;;2.90;0.52;;;13.60;56.20;;;;;;5100368;28;20079;-93
2022/01/30 12:21:09;;;;;;;0.00;0.00;;;13.50;55.50;;;;;;5099712;28;20510;-93
2022/01/30 12:23:37;;;;;;;1.63;0.82;;;13.40;57.00;;;;;;5100159;28;20074;-93
2022/01/30 12:26:05;;;;;;;5.75;1.27;;;13.30;56.10;;;;;;5099647;28;20040;-92
2022/01/30 12:28:51;;;;;;;0.28;0.20;;;13.30;55.90;;;;;;5099810;28;20090;-93
2022/01/30 12:31:34;;;;;;;0.60;0.20;;;13.30;57.60;;;;;;5098784;28;20107;-92
2022/01/30 12:34:08;;;;;;;0.00;0.00;;;13.10;58.40;;;;;;5099445;28;20130;-93
2022/01/30 12:36:52;;;;;;;0.00;0.00;;;13.20;58.10;;;;;;5116729;28;20044;-92
2022/01/30 12:39:21;;;;;;;2.10;0.10;;;13.10;58.60;;;;;;5099511;28;20044;-92
2022/01/30 12:41:48;;;;;;;0.68;0.65;;;13.20;58.10;;;;;;5099557;28;20426;-93
2022/01/30 12:44:19;;;;;;;2.25;0.70;;;12.80;57.70;;;;;;5099811;28;20050;-93
2022/01/30 12:46:51;;;;;;;3.25;0.75;;;12.40;57.30;;;;;;5099386;28;20036;-94
2022/01/30 12:49:18;;;;;;;0.60;0.40;;;12.30;57.80;;;;;;5116761;28;20036;-93
2022/01/30 12:51:50;;;;;;;0.00;0.00;;;12.10;58.60;;;;;;5116692;28;20059;-94
2022/01/30 12:54:19;;;;;;;9.32;1.95;;;11.80;57.80;;;;;;5099655;28;20137;-93
2022/01/30 12:56:45;;;;;;;0.52;0.50;;;11.70;58.10;;;;;;5099962;28;20422;-93
2022/01/30 12:59:13;;;;;;;2.15;1.05;;;11.30;58.30;;;;;;5099337;28;20050;-93
2022/01/30 13:01:42;;;;;;;0.38;0.38;;;11.50;60.10;;;;;;5099330;28;20044;-92
2022/01/30 13:04:12;;;;;;;4.60;1.10;;;11.20;59.20;;;;;;5116254;28;20135;-92
2022/01/30 13:06:40;;;;;;;0.00;0.00;;;11.20;61.20;;;;;;5115942;28;20035;-92
2022/01/30 13:09:11;;;;;;;10.98;0.47;;;11.00;61.50;;;;;;5099947;28;20112;-91
2022/01/30 13:11:37;;;;;;;0.00;0.00;;;10.80;61.30;;;;;;5098985;28;20048;-91
2022/01/30 13:14:06;;;;;;;0.93;0.22;;;10.90;61.20;;;;;;5099125;28;20475;-91
2022/01/30 13:16:44;;;;;;;0.00;0.00;;;10.60;60.80;;;;;;5098783;28;20040;-92
2022/01/30 13:19:12;;;;;;;0.00;0.00;;;10.50;62.30;;;;;;5099006;28;20372;-92
2022/01/30 13:21:43;;;;;;;1.85;0.57;;;10.50;62.10;;;;;;5097812;28;20395;-91
2022/01/30 13:24:09;;;;;;;3.72;1.13;;;10.50;61.80;;;;;;5099180;28;20140;-93
2022/01/30 13:26:38;;;;;;;0.00;0.00;;;10.40;61.70;;;;;;5115539;28;20505;-91
2022/01/30 13:29:08;;;;;;;6.97;0.00;;;10.40;63.00;;;;;;5097840;28;20138;-93
2022/01/30 13:31:37;;;;;;;0.00;0.00;;;10.60;63.10;;;;;;5115821;28;20047;-93
2022/01/30 13:34:14;;;;;;;4.78;0.80;;;10.50;65.20;;;;;;5099079;28;20558;-92
2022/01/30 13:36:52;;;;;;;1.95;0.70;;;10.20;65.00;;;;;;5098910;28;20580;-92
2022/01/30 13:39:25;;;;;;;0.03;0.03;;;10.10;64.60;;;;;;5098019;28;20051;-92
2022/01/30 13:42:01;;;;;;;0.70;0.70;;;10.00;64.70;;;;;;5098664;28;20053;-91
2022/01/30 13:44:50;;;;;;;0.00;0.00;;;9.90;65.20;;;;;;5097943;28;20059;-92
2022/01/30 13:47:22;;;;;;;1.00;0.68;;;9.80;66.10;;;;;;5098241;28;20035;-91
2022/01/30 13:49:50;;;;;;;0.15;0.15;;;9.70;65.70;;;;;;5098017;28;20069;-92
2022/01/30 13:52:18;;;;;;;0.10;0.10;;;9.60;67.20;;;;;;5115291;28;20079;-92
2022/01/30 13:55:00;;;;;;;0.25;0.25;;;9.60;67.30;;;;;;5097486;28;20502;-92
2022/01/30 13:57:37;;;;;;;0.28;0.17;;;9.30;67.20;;;;;;5097852;28;20061;-92
2022/01/30 14:00:20;;;;;;;0.00;0.00;;;9.40;67.20;;;;;;5097401;28;20554;-91
2022/01/30 14:03:04;;;;;;;0.73;0.40;;;9.30;69.10;;;;;;5094446;28;20055;-89
2022/01/30 14:05:31;;;;;;;2.95;0.65;;;9.30;66.50;;;;;;5112234;28;20032;-90